ADDS METAR Data INFO
IDs: Format: Raw Decoded Include TAF

Data at: 0145 UTC 18 Oct 2017

No METAR found for KWVI
No TAF found for KWVI

KSNS 180053Z 31006KT 7SM CLR 18/09 A3003 RMK AO2 SLP178 T01830094
KSNS 172353Z 30008KT 8SM CLR 19/08 A3005 RMK AO2 SLP183 T01890083 10256 20189 56005
KSNS 172253Z 29010KT 9SM CLR 21/06 A3005 RMK AO2 SLP183 T02110056
KSNS 172153Z 29008KT 9SM CLR 22/05 A3005 RMK AO2 SLP185 T02170050
KSNS 172053Z 28009KT 8SM CLR 24/05 A3006 RMK AO2 SLP188 T02390050 58012
KSNS 171953Z 30006KT 9SM CLR 26/03 A3008 RMK AO2 SLP194 T02560033
KSNS 171853Z 16003KT 9SM CLR 23/03 A3009 RMK AO2 SLP198 T02330028
KSNS 171753Z 13005KT 8SM CLR 21/03 A3010 RMK AO2 SLP200 T02110028 10211 20117 51011
KSNS 171653Z 11004KT 7SM CLR 18/03 A3010 RMK AO2 SLP200 T01780033
KSNS 171553Z 12003KT 7SM CLR 16/03 A3008 RMK AO2 SLP194 T01560028
KSNS 171453Z 12007KT 7SM CLR 12/03 A3006 RMK AO2 SLP189 T01170028 51008
KSNS 171353Z 09006KT 10SM CLR 13/02 A3006 RMK AO2 SLP187 T01280017
KSNS 171253Z AUTO 07004KT 10SM FEW120 13/01 A3005 RMK AO2 SLP185 T01330011
KSNS 171153Z AUTO 10005KT 10SM CLR 12/03 A3004 RMK AO2 SLP181 T01220028 10144 20111 56009
KSNS 171053Z AUTO 10004KT 10SM CLR 12/03 A3004 RMK AO2 SLP182 T01220028
KSNS 170953Z AUTO 10006KT 10SM CLR 13/03 A3005 RMK AO2 SLP185 T01330033
KSNS 170853Z AUTO 10004KT 10SM CLR 14/04 A3006 RMK AO2 SLP189 T01440039 55001
KSNS 170753Z AUTO 11004KT 10SM CLR 13/04 A3006 RMK AO2 SLP188 T01330044 403280122
KSNS 170653Z AUTO 14004KT 10SM CLR 14/04 A3007 RMK AO2 SLP191 T01390039
KSNS 170553Z AUTO 14005KT 10SM CLR 14/04 A3007 RMK AO2 SLP191 T01440039 10278 20133 53006
KSNS 170453Z AUTO 34003KT 10SM CLR 17/05 A3006 RMK AO2 SLP187 T01720050
KSNS 170353Z AUTO 30003KT 10SM CLR 18/06 A3005 RMK AO2 SLP184 T01830056
KSNS 170253Z AUTO 24008KT 10SM CLR 19/06 A3005 RMK AO2 SLP184 T01940061 53006
KSNS 170153Z 25006KT 10SM CLR 22/02 A3004 RMK AO2 SLP181 T02170022

KSNS 172341Z 1800/1824 29010KT P6SM BKN180
  FM180300 31005KT 6SM HZ FEW008 BKN180
  FM180600 VRB03KT P6SM FEW008 BKN180
  FM180900 10004KT 6SM HZ BR FEW008 BKN200
  FM181400 12005KT 6SM HZ BR BKN008
  FM181700 12005KT 6SM HZ SCT008
  FM182000 28010KT P6SM SKC


KMRY 180054Z 00000KT 8SM CLR 16/11 A3005 RMK AO2 SLP186 T01610106
KMRY 172354Z 00000KT 8SM FEW039 18/09 A3006 RMK AO2 SLP191 T01780094 10222 20172 56007
KMRY 172254Z 34004KT 7SM CLR 17/11 A3007 RMK AO2 SLP194 T01720111
KMRY 172154Z 36004KT 9SM CLR 19/08 A3007 RMK AO2 SLP193 T01940083
KMRY 172054Z VRB04KT 10SM CLR 19/07 A3009 RMK AO2 SLP198 T01940072 58008
KMRY 171954Z 32003KT 10SM CLR 20/05 A3010 RMK AO2 SLP204 T02000050
KMRY 171854Z 27003KT 10SM CLR 22/02 A3011 RMK AO2 SLP205 T02170022
KMRY 171754Z 30004KT 10SM CLR 21/04 A3011 RMK AO2 SLP207 T02060039 10244 20133 51016
KMRY 171654Z 08004KT 10SM CLR 20/02 A3010 RMK AO2 SLP202 T02000017
KMRY 171554Z 00000KT 10SM CLR 18/01 A3008 RMK AO2 SLP196 T01830006
KMRY 171454Z 09004KT 10SM CLR 14/M01 A3006 RMK AO2 SLP191 T01391011 51008
KMRY 171354Z 10003KT 10SM CLR 14/M01 A3006 RMK AO2 SLP189 T01441011
KMRY 171254Z 10004KT 10SM FEW120 14/M01 A3005 RMK AO2 SLP187 T01441011
KMRY 171154Z AUTO 00000KT 10SM FEW120 15/M01 A3004 RMK AO2 SLP182 T01501011 10178 20144 55009
KMRY 171054Z AUTO 10004KT 10SM CLR 14/M01 A3004 RMK AO2 SLP182 T01441011
KMRY 170954Z AUTO 10003KT 10SM CLR 15/M02 A3005 RMK AO2 SLP185 T01501017
KMRY 170854Z AUTO 00000KT 10SM CLR 16/M01 A3007 RMK AO2 SLP192 T01561011 58002
KMRY 170754Z AUTO 10005KT 10SM CLR 17/M01 A3006 RMK AO2 SLP191 T01671011 403110133
KMRY 170654Z AUTO 09004KT 10SM CLR 17/M01 A3007 RMK AO2 SLP195 T01671006
KMRY 170554Z AUTO 00000KT 10SM CLR 17/00 A3007 RMK AO2 SLP194 T01720000 10283 20167 53003
KMRY 170454Z AUTO 09005KT 10SM CLR 18/02 A3006 RMK AO2 SLP191 T01780017
KMRY 170354Z 13003KT 10SM CLR 18/03 A3006 RMK AO2 SLP188 T01780028
KMRY 170254Z 09006KT 10SM CLR 18/08 A3006 RMK AO2 SLP190 T01780078 53007
KMRY 170154Z 15004KT 10SM CLR 18/10 A3006 RMK AO2 SLP189 T01780100

KMRY 172341Z 1800/1824 VRB05KT P6SM BKN180
  FM180400 10003KT 6SM HZ FEW008 BKN180
  FM181400 12003KT 5SM HZ BR BKN008
  FM181800 29004KT P6SM SKC


KSJC 180053Z 29008KT 5SM HZ FEW014 SCT075 BKN120 24/05 A3003 RMK AO2 SLP169 T02390050
KSJC 172353Z 31006KT 7SM FEW016 SCT075 BKN110 26/01 A3003 RMK AO2 SLP169 T02610011 10267 20228 58010
KSJC 172253Z 30007KT 5SM HZ FEW012 SCT075 BKN110 25/03 A3005 RMK AO2 SLP175 HZ FEW012 T02500028
KSJC 172153Z 33005KT 8SM FEW023 BKN090 OVC120 26/04 A3005 RMK AO2 SLP175 T02560039
KSJC 172053Z 31006KT 9SM FEW027 BKN100 26/03 A3006 RMK AO2 SLP180 T02610028 58015
KSJC 171953Z 33005KT 5SM HZ BKN100 25/03 A3009 RMK AO2 SLP189 T02500028
KSJC 171853Z 00000KT 7SM FEW030 BKN100 23/04 A3010 RMK AO2 SLP192 T02330039
KSJC 171753Z VRB03KT 7SM FEW030 BKN100 23/04 A3011 RMK AO2 SLP194 T02280044 10228 20122 50009
KSJC 171653Z 00000KT 10SM FEW010 SCT035 BKN100 18/04 A3011 RMK AO2 SLP196 T01830044
KSJC 171553Z 00000KT 10SM FEW010 SCT035 SCT110 16/03 A3010 RMK AO2 SLP192 T01610033
KSJC 171453Z 19004KT 10SM FEW010 SCT035 SCT110 14/04 A3008 RMK AO2 SLP185 T01390044 53009
KSJC 171353Z 00000KT 10SM FEW055 SCT110 15/04 A3007 RMK AO2 SLP180 T01500039
KSJC 171253Z 00000KT 10SM CLR 13/04 A3006 RMK AO2 SLP180 T01330039
KSJC 171153Z AUTO 00000KT 10SM CLR 14/04 A3005 RMK AO2 SLP176 T01390039 10194 20139 55005
KSJC 171053Z AUTO 00000KT 10SM CLR 14/05 A3005 RMK AO2 SLP174 T01440050
KSJC 170953Z AUTO 00000KT 10SM CLR 16/04 A3006 RMK AO2 SLP178 T01610039
KSJC 170853Z AUTO 00000KT 10SM CLR 16/04 A3007 RMK AO2 SLP181 T01560039 53001
KSJC 170753Z AUTO 00000KT 10SM CLR 17/04 A3007 RMK AO2 SLP180 T01670039 402940111
KSJC 170653Z 10004KT 10SM SCT160 17/04 A3006 RMK AO2 SLP180 LAST T01720039
KSJC 170553Z 14004KT 10SM CLR 18/04 A3007 RMK AO2 SLP180 T01830044 10289 20183 51009
KSJC 170453Z 13004KT 10SM FEW100 19/05 A3006 RMK AO2 SLP178 T01940050
KSJC 170353Z 00000KT 10SM FEW100 21/06 A3005 RMK AO2 SLP175 T02060056
KSJC 170253Z 00000KT 10SM FEW075 FEW140 22/04 A3004 RMK AO2 SLP171 T02220044 53004
KSJC 170153Z COR 28004KT 10SM FEW075 SCT150 24/03 A3003 RMK AO2 SLP167 T02390028

KSJC 172341Z 1800/1824 30008KT 5SM HZ FEW012 SCT080 BKN110
  FM180300 VRB03KT 5SM HZ FEW012 SCT080 BKN110
  FM180900 00000KT 5SM HZ SCT180
  FM182100 31007KT 5SM HZ FEW180


KSFO 180056Z 30015KT 10SM FEW003 FEW150 BKN180 14/09 A3004 RMK AO2 SLP172 T01440089
KSFO 172356Z 30014KT 10SM FEW005 BKN180 19/08 A3004 RMK AO2 SLP172 T01890078 10256 20183 56009
KSFO 172256Z 30013KT 10SM FEW005 BKN180 19/09 A3005 RMK AO2 SLP177 T01890094
KSFO 172156Z 30008KT 9SM BKN180 26/06 A3005 RMK AO2 SLP176 T02560061
KSFO 172056Z 30008KT 6SM HZ BKN180 23/07 A3007 RMK AO2 SLP181 T02280067 58013
KSFO 171956Z 05004KT 5SM HZ BKN180 20/10 A3009 RMK AO2 SLP188 T02000100
KSFO 171856Z 02003KT 6SM HZ BKN180 19/10 A3010 RMK AO2 SLP194 T01940100
KSFO 171756Z 08004KT 6SM HZ BKN180 19/10 A3011 RMK AO2 SLP194 T01890100 10194 20144 50010
KSFO 171656Z COR 00000KT 7SM BKN180 18/10 A3011 RMK AO2 SLP197 T01830100
KSFO 171556Z 36003KT 9SM SCT180 18/11 A3010 RMK AO2 SLP191 T01780106
KSFO 171456Z 00000KT 10SM SCT180 16/09 A3008 RMK AO2 SLP184 T01560089 51008
KSFO 171356Z 17003KT 10SM FEW200 15/08 A3007 RMK AO2 SLP182 T01500083
KSFO 171256Z 00000KT 10SM FEW200 15/07 A3006 RMK AO2 SLP178 T01500067
KSFO 171156Z 00000KT 10SM FEW200 16/04 A3005 RMK AO2 SLP176 T01560044 10189 20150 55005
KSFO 171056Z 00000KT 10SM FEW150 16/04 A3004 RMK AO2 SLP172 T01560039
KSFO 170956Z 26005KT 10SM CLR 16/03 A3006 RMK AO2 SLP178 T01560033
KSFO 170856Z 00000KT 10SM CLR 17/03 A3007 RMK AO2 SLP181 T01670028 51002
KSFO 170756Z 00000KT 10SM CLR 18/07 A3006 RMK AO2 SLP180 T01780067 402830133
KSFO 170656Z 00000KT 10SM CLR 18/09 A3006 RMK AO2 SLP180 T01780094
KSFO 170556Z 00000KT 10SM CLR 19/12 A3006 RMK AO2 SLP179 T01890122 10283 20189 53010
KSFO 170456Z 00000KT 10SM CLR 19/10 A3005 RMK AO2 SLP174 T01940100
KSFO 170356Z 00000KT 10SM FEW180 22/04 A3004 RMK AO2 SLP171 T02220039
KSFO 170256Z 29005KT 10SM FEW180 24/00 A3003 RMK AO2 SLP169 T02390000 55000
KSFO 170156Z 28009KT 10SM SCT180 24/M01 A3002 RMK AO2 SLP167 T02441011

KSFO 172341Z 1800/1906 30013KT P6SM FEW005 BKN180
  FM180300 29009KT P6SM FEW005 SCT180
  FM180600 29005KT P6SM FEW005 SCT200
  FM181300 VRB03KT P6SM FEW005 SCT200
  FM181800 30005KT P6SM FEW200
  FM182100 30010KT P6SM FEW200
  FM182300 28015KT P6SM FEW200


KHAF 180135Z AUTO 34009KT 4SM BR OVC003 10/10 A3006 RMK AO2
KHAF 180115Z AUTO 34007KT 3SM BR OVC003 10/10 A3005 RMK AO2
KHAF 180055Z AUTO 33010KT 2SM BR OVC003 11/10 A3005 RMK AO2
KHAF 180035Z AUTO 33011G14KT 1SM BR OVC003 11/10 A3005 RMK AO2
KHAF 180015Z AUTO 33010KT 1 1/4SM BR OVC003 11/10 A3005 RMK AO2
KHAF 172355Z AUTO 33008KT 2SM BR OVC003 12/10 A3005 RMK AO2 VSBY 1 3/4V3
KHAF 172335Z AUTO 33010KT 1 1/2SM BR SCT003 12/10 A3006 RMK AO2
KHAF 172315Z AUTO 31010KT 9SM FEW004 14/11 A3004 RMK AO2
KHAF 172255Z AUTO 33007KT 5SM BR OVC004 12/11 A3006 RMK AO2
KHAF 172235Z AUTO 33010KT 3SM BR BKN004 13/11 A3006 RMK AO2
KHAF 172215Z AUTO 32012KT 7SM CLR 13/11 A3006 RMK AO2
KHAF 172155Z AUTO 32013KT 9SM CLR 14/12 A3006 RMK AO2
KHAF 172135Z AUTO 31011KT 8SM CLR 15/12 A3005 RMK AO2
KHAF 172115Z AUTO 32010KT 9SM CLR 17/12 A3005 RMK AO2
KHAF 172055Z AUTO 32009KT 9SM 17/11 A3005 RMK AO2
KHAF 172015Z AUTO 33009KT 8SM CLR 17/10 A3007 RMK AO2
KHAF 171955Z AUTO 32008KT 310V010 9SM CLR 17/09 A3007 RMK AO2
KHAF 171935Z AUTO 32010KT 9SM CLR 17/09 A3008 RMK AO2
KHAF 171915Z AUTO 34012KT 9SM CLR 17/10 A3008 RMK AO2
KHAF 171855Z AUTO 33015KT 8SM CLR 17/10 A3008 RMK AO2
KHAF 171835Z AUTO 32011KT A3008 RMK AO2
KHAF 171735Z AUTO 00000KT 7SM CLR 18/08 A3008 RMK AO2
KHAF 171715Z AUTO 00000KT 3SM HZ CLR 18/08 A3008 RMK AO2
KHAF 171655Z AUTO 00000KT 7SM CLR 17/08 A3008 RMK AO2
KHAF 171635Z AUTO 31005KT 8SM CLR 18/08 A3008 RMK AO2
KHAF 171615Z AUTO 31005KT 7SM SCT018 17/06 A3008 RMK AO2
KHAF 171550Z AUTO 31006KT 7SM SCT018 16/05 A3007 RMK AO2
KHAF 171535Z AUTO 32004KT 4SM HZ CLR 13/04 A3006 RMK AO2
KHAF 171515Z AUTO 01003KT 2 1/2SM HZ CLR 10/03 A3005 RMK AO2
KHAF 171455Z AUTO 00000KT 3SM HZ CLR 10/02 A3004 RMK AO2
KHAF 171430Z AUTO 00000KT 3SM HZ CLR 08/02 A3004 RMK AO2
KHAF 171415Z AUTO 00000KT 3SM HZ CLR 09/02 A3004 RMK AO2
KHAF 171355Z AUTO 00000KT 3SM HZ CLR 08/02 A3004 RMK AO2
KHAF 171335Z AUTO 00000KT 3SM HZ FEW041 SCT048 09/02 A3003 RMK AO2
KHAF 171315Z AUTO 00000KT 4SM HZ FEW029 SCT041 BKN047 08/02 A3003 RMK AO2
KHAF 171255Z AUTO 00000KT 5SM HZ FEW041 SCT048 09/02 A3003 RMK AO2
KHAF 171235Z AUTO 00000KT 4SM HZ FEW044 SCT050 10/02 A3002 RMK AO2
KHAF 171210Z AUTO 01003KT 4SM HZ FEW050 10/02 A3002 RMK AO2
KHAF 171155Z AUTO 00000KT 4SM HZ FEW050 10/02 A3002 RMK AO2
KHAF 171135Z AUTO 00000KT 5SM HZ CLR 09/02 A3002 RMK AO2
KHAF 171115Z AUTO 00000KT 4SM HZ FEW036 FEW047 10/02 A3002 RMK AO2
KHAF 171055Z AUTO 00000KT 4SM HZ FEW034 SCT048 09/03 A3001 RMK AO2
KHAF 171035Z AUTO 00000KT 5SM HZ CLR 10/02 A3002 RMK AO2
KHAF 171015Z AUTO 35003KT 4SM HZ CLR 10/02 A3002 RMK AO2
KHAF 170955Z AUTO 00000KT 4SM HZ CLR 10/02 A3003 RMK AO2
KHAF 170935Z AUTO 00000KT 3SM HZ CLR 10/03 A3003 RMK AO2
KHAF 170915Z AUTO 00000KT 4SM HZ CLR 10/04 A3004 RMK AO2
KHAF 170855Z AUTO 00000KT 5SM HZ CLR 10/03 A3004 RMK AO2
KHAF 170835Z AUTO 06003KT 5SM HZ CLR 10/03 A3004 RMK AO2
KHAF 170815Z AUTO 01003KT 5SM HZ CLR 11/04 A3004 RMK AO2
KHAF 170755Z AUTO 00000KT 5SM HZ CLR 11/04 A3004 RMK AO2
KHAF 170735Z AUTO 00000KT 5SM -RA CLR 10/04 A3004 RMK AO2
KHAF 170710Z AUTO 14005KT 4SM HZ CLR 11/03 A3004 RMK AO2
KHAF 170655Z AUTO 00000KT 4SM HZ CLR 10/03 A3004 RMK AO2
KHAF 170635Z AUTO 13003KT 3SM HZ CLR 10/03 A3004 RMK AO2
KHAF 170615Z AUTO 00000KT 4SM HZ CLR 10/03 A3003 RMK AO2
KHAF 170555Z AUTO 00000KT 4SM HZ CLR 11/03 A3003 RMK AO2
KHAF 170535Z AUTO 00000KT 4SM HZ CLR 10/03 A3003 RMK AO2
KHAF 170515Z AUTO 00000KT 3SM HZ CLR 11/03 A3003 RMK AO2
KHAF 170455Z AUTO 00000KT 5SM HZ CLR 12/03 A3002 RMK AO2
KHAF 170435Z AUTO 00000KT 5SM HZ CLR 12/04 A3003 RMK AO2
KHAF 170415Z AUTO 00000KT 3SM HZ CLR 12/05 A3002 RMK AO2
KHAF 170355Z AUTO 00000KT 5SM HZ CLR 13/04 A3002 RMK AO2
KHAF 170330Z AUTO 00000KT 3SM HZ FEW050 14/06 A3002 RMK AO2
KHAF 170315Z AUTO 03003KT 3SM HZ FEW050 13/05 A3002 RMK AO2
KHAF 170255Z AUTO 00000KT 5SM HZ CLR 14/06 A3002 RMK AO2
KHAF 170230Z AUTO 00000KT 4SM HZ FEW050 14/07 A3001 RMK AO2
KHAF 170215Z AUTO 00000KT 4SM HZ CLR 14/07 A3001 RMK AO2
KHAF 170155Z AUTO 00000KT 3SM HZ CLR 16/08 A3002 RMK AO2
No TAF found for KHAF